Stations météo

réclame
Mon MeteoGroup
Malmö, Suède (2635): Température de l'air & dewpoint: 19.09.2018 09:00:00 - 25.09.2018 09:00:00 (CEST)Malmö, Suède (2635): Vitesse du vent & gusts: 19.09.2018 09:00:00 - 25.09.2018 09:00:00 (CEST)Malmö, Suède (2635): Direction du vent: 19.09.2018 09:00:00 - 25.09.2018 09:00:00 (CEST)Malmö, Suède (2635): visibility: 19.09.2018 09:00:00 - 25.09.2018 09:00:00 (CEST)Malmö, Suède (2635): Quantités de précipitations: 19.09.2018 09:00:00 - 25.09.2018 09:00:00 (CEST)
Date & Time tt [°C] td [°C] ff [km/h] ff [knt] fx [km/h] fx [knt] dd vv [km] rr [mm]
25.09.2018 09:00:00 10,6 5,3 11 6 25 13 NNW 22 0,0
25.09.2018 08:00:00 9,2 4,8 6 3 28 15 W 44 0,0
25.09.2018 07:00:00 8,5 4,4 5 3 28 15 N 39 0,0
25.09.2018 06:00:00 9,3 4,3 14 7 26 14 WNW 50 0,0
25.09.2018 05:00:00 8,6 4,8 7 4 18 10 WNW 48 0,0
25.09.2018 04:00:00 8,5 4,0 7 4 18 10 W 50 0,0
25.09.2018 03:00:00 7,0 3,2 3 2 16 9 W 50 0,0
25.09.2018 02:00:00 8,2 3,5 6 4 16 8 NW 50 0,0
25.09.2018 01:00:00 7,2 3,9 5 3 16 8 W 43 0,0
25.09.2018 00:00:00 6,4 3,3 0 0 16 8 N 50 0,0
24.09.2018 23:00:00 8,3 3,9 5 3 33 18 NNW 50 0,0
24.09.2018 22:00:00 8,3 4,5 10 5 39 21 WNW 50 0,3
24.09.2018 21:00:00 9,0 1,8 16 9 39 21 NNW 50 0,2
24.09.2018 20:00:00 7,4 4,0 4 2 30 16 NNE 50 0,5
24.09.2018 19:00:00 8,9 3,7 5 3 43 23 NNE 50 0,3
24.09.2018 18:00:00 10,8 3,7 12 6 43 23 NNW 36 0,0
24.09.2018 17:00:00 9,8 5,4 5 3 27 15 N 39 0,3
24.09.2018 16:00:00 10,2 5,7 9 5 29 16 N 19 0,5
24.09.2018 15:00:00 11,9 4,9 9 5 40 21 NNW 41 0,0
24.09.2018 14:00:00 11,8 5,0 14 8 40 21 W 39 0,0
24.09.2018 13:00:00 11,7 5,2 16 9 35 19 NW 37 0,0
24.09.2018 12:00:00 10,5 4,9 16 9 44 24 WNW 44 0,0
24.09.2018 11:00:00 11,2 5,1 21 11 44 24 WNW 43 0,0
24.09.2018 10:00:00 12,3 6,1 17 9 37 20 NW 32 0,0
24.09.2018 09:00:00 10,5 5,6 18 10 34 18 WNW 50 0,0
24.09.2018 08:00:00 8,1 5,5 14 8 34 18 WNW 50 0,1
24.09.2018 07:00:00 7,7 6,2 9 5 44 24 W 50 2,4
24.09.2018 06:00:00 7,1 4,5 21 12 44 24 NNW 2,7 3,3
24.09.2018 05:00:00 9,4 4,1 16 8 43 23 WNW 50 0,0
24.09.2018 04:00:00 8,0 6,1 9 5 47 26 W 48 0,8
24.09.2018 03:00:00 8,3 5,4 9 5 47 26 N 9 0,3
24.09.2018 02:00:00 10,3 7,0 15 8 32 17 W 24 0,0
24.09.2018 01:00:00 10,2 7,0 11 6 34 18 WNW 26 0,0
24.09.2018 00:00:00 10,4 6,6 12 7 34 18 WNW 26 0,0
23.09.2018 23:00:00 10,6 6,5 11 6 34 19 WNW 35 0,0
23.09.2018 22:00:00 10,6 6,0 11 6 34 19 WNW 46 0,0
23.09.2018 21:00:00 11,4 5,7 17 9 29 15 NW 47 0,0
23.09.2018 20:00:00 11,0 5,9 9 5 24 13 WNW 48 0,0
23.09.2018 19:00:00 11,9 5,6 10 6 25 14 WNW 44 0,0
23.09.2018 18:00:00 12,5 5,7 13 7 32 18 WNW 33 0,0
23.09.2018 17:00:00 13,2 5,8 11 6 32 18 WNW 32 0,0
23.09.2018 16:00:00 13,7 4,0 17 9 32 17 W 32 0,0
23.09.2018 15:00:00 13,8 3,6 14 8 39 21 W 32 0,0
23.09.2018 14:00:00 14,6 3,8 19 11 40 21 W 27 0,0
23.09.2018 13:00:00 14,1 6,9 16 9 40 21 W 24 0,0
23.09.2018 12:00:00 14,3 6,9 17 9 39 21 W 24 0,0
23.09.2018 11:00:00 13,7 6,8 20 11 39 21 W 23 0,0
23.09.2018 10:00:00 12,9 7,4 19 10 39 21 W 21 0,0
23.09.2018 09:00:00 12,0 8,4 18 10 39 21 W 20 0,0
23.09.2018 08:00:00 11,5 7,6 15 8 31 17 W 22 0,0
23.09.2018 07:00:00 10,8 7,7 15 8 32 18 W 21 0,0
23.09.2018 06:00:00 11,0 7,8 14 8 35 19 W 21 0,0
23.09.2018 05:00:00 11,0 7,9 16 8 36 19 W 25 0,0
23.09.2018 04:00:00 11,4 8,0 18 10 40 22 W 26 0,0
23.09.2018 03:00:00 11,5 7,8 17 9 40 22 W 25 0,0
23.09.2018 02:00:00 11,4 7,4 17 9 41 22 W 28 0,0
23.09.2018 01:00:00 11,7 7,4 19 10 47 25 W 23 0,0
23.09.2018 00:00:00 11,9 7,0 25 13 47 25 W 22 0,0
22.09.2018 23:00:00 12,0 7,2 18 10 42 23 W 22 0,0
22.09.2018 22:00:00 12,1 6,7 22 12 42 23 W 27 0,0
22.09.2018 21:00:00 12,2 6,5 16 9 43 23 W 29 0,0
22.09.2018 20:00:00 13,0 6,6 21 11 43 23 W 28 0,0
22.09.2018 19:00:00 12,3 7,0 12 6 41 22 W 30 0,0
22.09.2018 18:00:00 13,4 6,3 18 10 53 28 W 30 0,0
22.09.2018 17:00:00 14,0 6,6 16 9 53 28 W 26 0,5
22.09.2018 16:00:00 14,7 6,9 21 12 51 28 W 26 0,0
22.09.2018 15:00:00 13,6 8,0 23 12 58 31 W 33 0,0
22.09.2018 14:00:00 9,9 8,5 25 13 58 31 W 3,3 4,5
22.09.2018 13:00:00 13,5 9,4 19 10 51 28 W 20 0,2
22.09.2018 12:00:00 15,8 6,1 21 11 51 28 WSW 23 0,0
22.09.2018 11:00:00 14,7 7,0 23 13 53 28 W 19 0,0
22.09.2018 10:00:00 13,5 7,4 25 14 53 28 W 16 0,0
22.09.2018 09:00:00 13,2 6,9 22 12 46 25 W 16 0,0
22.09.2018 08:00:00 12,3 7,2 20 11 44 24 W 17 0,0
22.09.2018 07:00:00 11,6 6,9 23 12 45 24 W 22 0,0
22.09.2018 06:00:00 11,7 7,4 23 12 48 26 W 25 0,0
22.09.2018 05:00:00 12,0 7,7 26 14 54 29 W 29 0,0
22.09.2018 04:00:00 11,9 8,0 22 12 55 30 W 35 0,0
22.09.2018 03:00:00 10,5 6,9 27 15 61 33 W 12 0,3
22.09.2018 02:00:00 12,0 8,2 23 12 61 33 W 29 0,0
22.09.2018 01:00:00 12,8 7,3 23 12 51 28 WSW 25 0,0
22.09.2018 00:00:00 12,9 7,2 22 12 52 28 WSW 27 0,0
21.09.2018 23:00:00 12,8 6,7 23 12 52 28 WSW 29 0,0
21.09.2018 22:00:00 13,0 7,3 18 10 53 29 WSW 26 0,0
21.09.2018 21:00:00 12,6 6,9 18 10 53 29 WSW 38 0,0
21.09.2018 20:00:00 14,3 6,8 28 15 51 28 W 26 0,0
21.09.2018 19:00:00 14,4 7,8 27 15 48 26 W 27 0,0
21.09.2018 18:00:00 14,4 9,7 20 11 53 29 W 20 0,0
21.09.2018 17:00:00 13,2 11,3 14 8 55 30 WSW 13 8,0
21.09.2018 16:00:00 14,6 13,7 16 8 55 30 W 3,8 4,6
21.09.2018 15:00:00 19,6 13,9 28 15 53 28 W 15 0,0
21.09.2018 14:00:00 23,2 13,0 17 9 55 30 SSW 22 0,0
21.09.2018 13:00:00 23,5 13,7 19 10 55 30 SSW 22 0,0
21.09.2018 12:00:00 23,9 13,6 21 11 47 26 S 16 0,0
21.09.2018 11:00:00 21,9 13,5 18 10 41 22 S 21 0,0
21.09.2018 10:00:00 20,7 12,9 15 8 40 22 S 27 0,0
21.09.2018 09:00:00 20,3 13,0 15 8 36 19 S 19 0,0
21.09.2018 08:00:00 19,8 13,3 14 8 36 19 S 20 0,0
21.09.2018 07:00:00 19,0 13,1 12 7 24 13 SSE 20 0,0
21.09.2018 06:00:00 18,1 13,2 10 6 20 11 SSE 18 0,0
21.09.2018 05:00:00 18,0 13,4 7 4 19 11 SSE 23 0,0
21.09.2018 04:00:00 18,0 14,0 8 4 16 9 SSE 21 0,0
21.09.2018 03:00:00 17,3 14,3 4 2 15 8 SSE 20 0,0
21.09.2018 02:00:00 17,1 14,5 5 3 10 5 SSE 22 0,0
21.09.2018 01:00:00 16,9 14,6 4 2 11 6 S 19 0,0
21.09.2018 00:00:00 17,7 15,2 4 2 13 7 S 17 0,0
20.09.2018 23:00:00 18,3 15,6 5 3 14 7 S 16 0,0
20.09.2018 22:00:00 18,5 15,2 5 3 14 7 SSE 19 0,0
20.09.2018 21:00:00 19,1 14,4 4 2 16 9 SSW 23 0,0
20.09.2018 20:00:00 19,4 14,4 4 2 21 11 WSW 23 0,0
20.09.2018 19:00:00 19,6 14,5 6 3 26 14 WSW 26 0,0
20.09.2018 18:00:00 20,3 14,2 10 5 27 15 WSW 26 0,0
20.09.2018 17:00:00 20,3 14,5 9 5 34 19 SW 23 0,0
20.09.2018 16:00:00 20,9 14,1 13 7 35 19 WSW 24 0,0
20.09.2018 15:00:00 21,0 14,5 16 8 35 19 WSW 16 0,0
20.09.2018 14:00:00 21,1 14,6 13 7 35 19 WSW 20 0,0
20.09.2018 13:00:00 19,9 14,6 12 7 35 19 WSW 14 0,0
20.09.2018 12:00:00 21,2 15,0 8 5 30 16 WSW 16 0,0
20.09.2018 11:00:00 19,3 14,6 10 5 29 16 SW 15 0,0
20.09.2018 10:00:00 18,9 14,7 11 6 27 15 SW 19 0,0
20.09.2018 09:00:00 19,0 15,0 7 4 22 12 WSW 15 0,0
20.09.2018 08:00:00 17,6 14,8 8 4 22 12 SW 15 0,0
20.09.2018 07:00:00 17,4 14,3 7 4 31 17 WSW 17 0,0
20.09.2018 06:00:00 18,0 14,5 7 4 31 17 WSW 20 0,0
20.09.2018 05:00:00 18,3 14,2 15 8 29 15 W 20 0,0
20.09.2018 04:00:00 18,2 14,0 10 5 28 15 WSW 22 0,0
20.09.2018 03:00:00 17,0 14,5 4 2 20 11 SW 15 0,0
20.09.2018 02:00:00 18,0 14,2 8 4 20 11 WSW 19 0,0
20.09.2018 01:00:00 17,9 13,9 5 3 14 8 WSW 20 0,0
20.09.2018 00:00:00 - - - - - - - - -
19.09.2018 23:00:00 19,2 14,0 6 3 18 10 SW 29 0,0
19.09.2018 22:00:00 18,7 13,0 6 4 18 10 SSE 28 0,0
19.09.2018 21:00:00 18,6 13,3 8 5 16 8 S 22 0,0
19.09.2018 20:00:00 17,9 13,9 6 3 17 9 S 21 0,0
19.09.2018 19:00:00 19,2 14,2 5 3 23 12 S 21 0,0
19.09.2018 18:00:00 20,1 14,7 7 4 26 14 SSW 19 0,0
19.09.2018 17:00:00 21,4 14,1 9 5 29 15 SSW 21 0,0
19.09.2018 16:00:00 21,0 14,7 8 4 31 17 SW 17 0,0
19.09.2018 15:00:00 21,9 14,6 9 5 35 19 SW 18 0,0
19.09.2018 14:00:00 22,0 13,5 12 7 35 19 SSW 10 0,0
19.09.2018 13:00:00 22,1 14,7 8 5 24 13 SSW 9 0,0
19.09.2018 12:00:00 20,5 15,4 11 6 24 13 S 3,6 0,0
19.09.2018 11:00:00 20,0 15,9 8 4 20 11 WSW 11 0,0
19.09.2018 10:00:00 18,9 15,9 9 5 23 12 WSW 11 0,0
19.09.2018 09:00:00 17,2 15,4 8 4 23 12 WSW 9 0,0

tt = Température de l'air
td = dewpoint
ff = Vitesse du vent
fx = gusts
dd = Direction du vent
vv = visibility
rr = Quantités de précipitations

stations d'obs. à proximité